Time;durP1;ratioP1;P1;durP2;ratioP2;P2;SDS_P1;SDS_P2;PMS_P1;PMS_P2;Temp;Humidity;BMP_temperature;BMP_pressure;BME280_temperature;BME280_humidity;BME280_pressure;Samples;Min_cycle;Max_cycle;Signal;HPM_P1;HPM_P2
2023/07/27 00:01:19;;;;;;;7.45;4.88;;;;;;;16.44;84.78;100926.59;5051537;28;20450;-81
2023/07/27 00:03:45;;;;;;;6.72;4.28;;;;;;;16.48;84.67;100929.81;5057919;28;20158;-82
2023/07/27 00:06:10;;;;;;;7.00;4.75;;;;;;;16.45;85.05;100936.34;5053044;28;20041;-82
2023/07/27 00:08:35;;;;;;;7.18;4.88;;;;;;;16.44;85.66;100931.13;5048330;28;20029;-82
2023/07/27 00:11:01;;;;;;;6.25;4.53;;;;;;;16.41;86.82;100926.06;5050014;28;20116;-82
2023/07/27 00:13:26;;;;;;;8.45;4.78;;;;;;;16.43;86.70;100926.75;5053779;28;20498;-82
2023/07/27 00:15:51;;;;;;;6.80;5.07;;;;;;;16.37;86.91;100922.84;5049695;28;20025;-82
2023/07/27 00:18:17;;;;;;;8.82;4.90;;;;;;;16.35;87.78;100930.19;5050954;28;20479;-82
2023/07/27 00:20:42;;;;;;;7.87;5.10;;;;;;;16.32;87.78;100917.13;5047118;28;20478;-82
2023/07/27 00:23:07;;;;;;;7.82;4.90;;;;;;;16.35;89.15;100921.31;5050668;28;20291;-81
2023/07/27 00:25:32;;;;;;;8.77;4.82;;;;;;;16.30;88.10;100905.69;5052392;28;20478;-82
2023/07/27 00:27:58;;;;;;;6.95;4.72;;;;;;;16.33;87.63;100916.09;5053227;28;20087;-82
2023/07/27 00:30:24;;;;;;;6.93;4.95;;;;;;;16.34;88.62;100925.00;5048199;28;20022;-81
2023/07/27 00:32:49;;;;;;;6.90;5.07;;;;;;;16.29;89.84;100912.06;5050330;28;20025;-81
2023/07/27 00:35:14;;;;;;;6.13;4.28;;;;;;;16.31;89.05;100912.72;5047453;28;20059;-81
2023/07/27 00:37:41;;;;;;;5.07;4.55;;;;;;;16.27;89.73;100909.53;5050356;28;20080;-81
2023/07/27 00:40:06;;;;;;;7.32;4.97;;;;;;;16.23;89.78;100910.81;5051899;28;20123;-81
2023/07/27 00:42:32;;;;;;;9.77;4.72;;;;;;;16.17;89.87;100897.19;5051699;28;20103;-81
2023/07/27 00:44:57;;;;;;;6.47;5.20;;;;;;;16.19;90.18;100888.00;5052131;28;20029;-81
2023/07/27 00:47:23;;;;;;;6.03;4.55;;;;;;;16.19;90.42;100896.03;5050781;28;20105;-81
2023/07/27 00:49:48;;;;;;;6.38;4.72;;;;;;;16.17;91.85;100886.47;5050153;28;20087;-81
2023/07/27 00:52:14;;;;;;;7.55;5.20;;;;;;;16.13;92.46;100888.59;5047495;28;20483;-82
2023/07/27 00:54:39;;;;;;;9.95;5.28;;;;;;;16.09;93.23;100885.41;5049365;28;20017;-81
2023/07/27 00:57:06;;;;;;;7.38;4.95;;;;;;;16.07;92.07;100867.78;5049762;28;20029;-81
2023/07/27 00:59:32;;;;;;;6.10;4.82;;;;;;;16.07;92.91;100870.47;5053275;28;20045;-81
2023/07/27 01:01:58;;;;;;;9.95;5.72;;;;;;;16.05;93.23;100862.59;5056563;28;20029;-81
2023/07/27 01:04:24;;;;;;;7.25;5.43;;;;;;;16.07;92.73;100859.75;5054692;28;20033;-81
2023/07/27 01:06:49;;;;;;;7.78;5.40;;;;;;;16.01;92.50;100860.38;5059944;28;20032;-82
2023/07/27 01:09:14;;;;;;;7.95;5.40;;;;;;;16.01;93.44;100855.84;5057220;28;20480;-82
2023/07/27 01:11:56;;;;;;;6.60;5.10;;;;;;;15.98;92.69;100839.25;5056447;28;20021;-81
2023/07/27 01:14:39;;;;;;;6.28;5.47;;;;;;;15.96;93.99;100847.44;5048488;28;20071;-81
2023/07/27 01:17:14;;;;;;;8.35;4.80;;;;;;;15.95;94.16;100843.06;5043726;28;20033;-81
2023/07/27 01:19:58;;;;;;;9.77;5.50;;;;;;;15.96;93.51;100849.28;5049791;28;20037;-81
2023/07/27 01:22:37;;;;;;;8.77;5.63;;;;;;;15.90;94.73;100840.84;5049510;28;20079;-81
2023/07/27 01:25:28;;;;;;;8.80;5.78;;;;;;;15.91;94.25;100837.16;5046176;28;20036;-81
2023/07/27 01:28:20;;;;;;;8.70;5.53;;;;;;;15.79;93.98;100808.94;5047980;28;20057;-81
2023/07/27 01:30:50;;;;;;;7.97;5.80;;;;;;;15.82;96.08;100835.41;5048788;28;20029;-81
2023/07/27 01:33:28;;;;;;;9.35;5.63;;;;;;;15.77;95.81;100826.13;5047612;28;20029;-81
2023/07/27 01:36:01;;;;;;;9.23;6.00;;;;;;;15.76;95.24;100814.59;5050475;28;20419;-82
2023/07/27 01:38:29;;;;;;;10.07;6.43;;;;;;;15.72;95.35;100819.38;5046119;28;20450;-82
2023/07/27 01:40:56;;;;;;;8.38;6.57;;;;;;;15.69;96.67;100821.53;5047906;28;20102;-82
2023/07/27 01:43:22;;;;;;;9.30;6.28;;;;;;;15.71;96.72;100808.81;5046141;28;20032;-82
2023/07/27 01:45:48;;;;;;;12.10;6.13;;;;;;;15.68;96.99;100806.44;5050820;28;20035;-82
2023/07/27 01:48:16;;;;;;;8.00;6.18;;;;;;;15.58;96.75;100793.13;5052731;28;20071;-82
2023/07/27 01:50:43;;;;;;;11.43;7.45;;;;;;;15.64;98.01;100799.72;5046005;28;20108;-81
2023/07/27 01:53:10;;;;;;;10.13;7.38;;;;;;;15.59;98.03;100802.84;5047549;28;20398;-81
2023/07/27 01:55:36;;;;;;;9.55;5.95;;;;;;;15.58;97.50;100798.47;5045897;28;20031;-81
2023/07/27 01:58:03;;;;;;;9.07;6.50;;;;;;;15.54;98.34;100781.88;5051317;28;20033;-82
2023/07/27 02:00:28;;;;;;;9.80;6.80;;;;;;;15.50;98.76;100788.53;5053877;28;20499;-81
2023/07/27 02:02:55;;;;;;;10.60;6.57;;;;;;;15.46;98.51;100775.59;5052849;28;20109;-82
2023/07/27 02:05:24;;;;;;;7.60;6.22;;;;;;;15.39;98.95;100778.03;5051660;28;20099;-82
2023/07/27 02:07:49;;;;;;;9.35;6.78;;;;;;;15.35;98.87;100765.94;5053941;28;20039;-82
2023/07/27 02:10:17;;;;;;;10.88;7.03;;;;;;;15.34;100.00;100767.78;5050575;28;20025;-81
2023/07/27 02:12:50;;;;;;;9.50;6.78;;;;;;;15.31;100.00;100759.22;5050387;28;20109;-81
2023/07/27 02:15:22;;;;;;;10.05;6.97;;;;;;;15.24;100.00;100744.75;5043971;28;20072;-82
2023/07/27 02:17:52;;;;;;;8.48;6.75;;;;;;;15.15;100.00;100739.31;5048257;28;20025;-81
2023/07/27 02:20:19;;;;;;;6.85;6.15;;;;;;;15.17;100.00;100741.81;5048373;28;20064;-81
2023/07/27 02:22:47;;;;;;;10.95;6.80;;;;;;;15.18;100.00;100740.84;5046737;28;20478;-81
2023/07/27 02:25:13;;;;;;;9.32;6.53;;;;;;;15.14;100.00;100731.44;5043357;28;20074;-81
2023/07/27 02:27:38;;;;;;;10.82;6.75;;;;;;;15.10;100.00;100728.19;5046162;28;20041;-81
2023/07/27 02:30:04;;;;;;;10.73;7.20;;;;;;;15.09;100.00;100723.03;5065139;28;20029;-81
2023/07/27 02:32:30;;;;;;;9.40;6.65;;;;;;;15.05;100.00;100717.13;5057979;28;20117;-81
2023/07/27 02:34:56;;;;;;;9.65;6.60;;;;;;;15.03;100.00;100712.94;5054301;28;20033;-81
2023/07/27 02:37:21;;;;;;;9.23;6.82;;;;;;;15.07;100.00;100709.81;5050247;28;20032;-81
2023/07/27 02:39:46;;;;;;;10.25;6.80;;;;;;;15.06;100.00;100704.59;5062468;28;20025;-82
2023/07/27 02:42:12;;;;;;;8.60;6.63;;;;;;;15.07;100.00;100703.59;5045217;28;20028;-82
2023/07/27 02:44:37;;;;;;;9.18;6.93;;;;;;;15.02;100.00;100684.47;5048516;28;20032;-81
2023/07/27 02:47:02;;;;;;;9.13;7.45;;;;;;;15.04;100.00;100690.50;5048038;28;20040;-82
2023/07/27 02:49:28;;;;;;;12.13;7.13;;;;;;;15.04;100.00;100690.50;5052834;28;20156;-82
2023/07/27 02:51:53;;;;;;;11.68;7.05;;;;;;;15.06;100.00;100692.06;5058061;28;20029;-81
2023/07/27 02:54:18;;;;;;;11.38;6.85;;;;;;;15.03;100.00;100684.34;5046317;28;20487;-81
2023/07/27 02:56:44;;;;;;;13.60;7.43;;;;;;;15.07;100.00;100687.53;5048405;28;20029;-81
2023/07/27 02:59:09;;;;;;;11.48;7.05;;;;;;;15.07;100.00;100684.88;5047556;28;20052;-81
2023/07/27 03:01:34;;;;;;;10.07;7.03;;;;;;;15.03;100.00;100681.66;5044300;28;20029;-81
2023/07/27 03:03:59;;;;;;;11.60;7.03;;;;;;;15.03;100.00;100668.28;5045536;28;20386;-81
2023/07/27 03:06:25;;;;;;;10.57;7.35;;;;;;;15.04;100.00;100677.13;5046678;28;20340;-81
2023/07/27 03:08:50;;;;;;;9.95;7.20;;;;;;;14.99;100.00;100670.44;5044534;28;20163;-80
2023/07/27 03:11:15;;;;;;;11.00;7.35;;;;;;;14.98;100.00;100658.03;5044673;28;20033;-81
2023/07/27 03:13:41;;;;;;;9.13;6.95;;;;;;;14.92;100.00;100653.31;5044207;28;20025;-81
2023/07/27 03:16:06;;;;;;;9.50;6.93;;;;;;;14.93;100.00;100649.63;5045931;28;20037;-81
2023/07/27 03:18:31;;;;;;;9.43;7.03;;;;;;;14.92;100.00;100650.63;5044701;28;20032;-81
2023/07/27 03:20:57;;;;;;;10.55;6.60;;;;;;;14.93;100.00;100644.28;5047708;28;20040;-81
2023/07/27 03:23:22;;;;;;;9.68;7.03;;;;;;;14.90;100.00;100631.19;5038857;28;20029;-80
2023/07/27 03:25:47;;;;;;;9.35;6.18;;;;;;;14.85;100.00;100624.63;5047525;28;20029;-81
2023/07/27 03:28:12;;;;;;;9.63;6.72;;;;;;;14.84;100.00;100620.28;5041580;28;20049;-81
2023/07/27 03:30:38;;;;;;;11.57;6.97;;;;;;;14.81;100.00;100616.09;5053534;28;20067;-81
2023/07/27 03:33:05;;;;;;;9.68;6.45;;;;;;;14.77;100.00;100612.00;5048617;28;20026;-80
2023/07/27 03:35:31;;;;;;;11.10;7.30;;;;;;;14.70;100.00;100595.72;5049111;28;20034;-81
2023/07/27 03:37:56;;;;;;;7.50;6.53;;;;;;;14.70;100.00;100593.06;5042855;28;20039;-80
2023/07/27 03:40:22;;;;;;;9.85;6.72;;;;;;;14.63;100.00;100581.28;5049087;28;20471;-80
2023/07/27 03:42:47;;;;;;;10.85;7.25;;;;;;;14.65;100.00;100584.66;5047651;28;20454;-80
2023/07/27 03:45:16;;;;;;;11.98;7.13;;;;;;;14.65;100.00;100573.97;5047467;28;20116;-80
2023/07/27 03:47:43;;;;;;;9.18;7.05;;;;;;;14.63;100.00;100567.94;5042290;28;20029;-81
2023/07/27 03:50:08;;;;;;;10.02;6.70;;;;;;;14.57;100.00;100553.31;5047950;28;20491;-81
2023/07/27 03:52:34;;;;;;;13.35;6.93;;;;;;;14.58;100.00;100557.66;5047026;28;20032;-80
2023/07/27 03:54:59;;;;;;;8.68;6.35;;;;;;;14.58;100.00;100551.47;5050311;28;20029;-80
2023/07/27 03:57:25;;;;;;;8.75;6.30;;;;;;;14.57;100.00;100552.47;5049728;28;20020;-80
2023/07/27 03:59:55;;;;;;;7.60;6.78;;;;;;;14.54;100.00;100542.09;5048538;28;20040;-81
2023/07/27 04:02:21;;;;;;;7.45;5.57;;;;;;;14.57;100.00;100550.66;5048995;28;20360;-81
2023/07/27 04:04:47;;;;;;;7.95;5.80;;;;;;;14.58;100.00;100544.28;5050598;28;20036;-81
2023/07/27 04:07:13;;;;;;;7.28;5.35;;;;;;;14.59;100.00;100551.38;5060996;28;20044;-81
2023/07/27 04:09:38;;;;;;;6.97;5.20;;;;;;;14.61;100.00;100549.38;5050323;28;20025;-81
2023/07/27 04:12:04;;;;;;;6.78;5.10;;;;;;;14.62;100.00;100552.88;5045666;28;20064;-81
2023/07/27 04:14:29;;;;;;;7.10;5.50;;;;;;;14.58;100.00;100544.28;5045974;28;20032;-81
2023/07/27 04:16:55;;;;;;;7.50;4.78;;;;;;;14.65;100.00;100549.91;5046229;28;20044;-81
2023/07/27 04:19:20;;;;;;;6.57;4.30;;;;;;;14.64;100.00;100542.03;5048033;28;20408;-81
2023/07/27 04:21:45;;;;;;;6.82;4.60;;;;;;;14.63;100.00;100530.50;5050015;28;20017;-81
2023/07/27 04:24:10;;;;;;;6.30;4.68;;;;;;;14.66;100.00;100532.06;5051445;28;20024;-81
2023/07/27 04:26:36;;;;;;;5.78;4.40;;;;;;;14.66;100.00;100529.38;5046156;28;20067;-81
2023/07/27 04:29:01;;;;;;;8.30;4.30;;;;;;;14.64;100.00;100523.31;5057061;28;20025;-81
2023/07/27 04:31:26;;;;;;;5.18;4.05;;;;;;;14.62;100.00;100515.44;5053131;28;20025;-81
2023/07/27 04:33:52;;;;;;;5.70;4.15;;;;;;;14.65;100.00;100517.00;5056956;28;20433;-81
2023/07/27 04:36:17;;;;;;;5.25;4.10;;;;;;;14.64;100.00;100510.81;5057295;28;20069;-81
2023/07/27 04:38:43;;;;;;;4.40;4.00;;;;;;;14.64;100.00;100512.63;5059986;28;20041;-81
2023/07/27 04:41:09;;;;;;;5.82;3.78;;;;;;;14.65;100.00;100504.47;5062036;28;20470;-81
2023/07/27 04:43:34;;;;;;;4.75;4.05;;;;;;;14.64;100.00;100504.63;5056468;28;20382;-81
2023/07/27 04:45:59;;;;;;;6.70;4.30;;;;;;;14.66;100.00;100498.13;5055233;28;20086;-80
2023/07/27 04:48:24;;;;;;;6.85;4.03;;;;;;;14.68;100.00;100498.00;5049873;28;20036;-81
2023/07/27 04:50:50;;;;;;;4.68;4.18;;;;;;;14.68;100.00;100500.66;5055363;28;20071;-80
2023/07/27 04:53:15;;;;;;;4.43;3.95;;;;;;;14.69;100.00;100489.81;5059778;28;20024;-81
2023/07/27 04:55:40;;;;;;;6.90;4.65;;;;;;;14.69;100.00;100494.31;5057317;28;20057;-81
2023/07/27 04:58:06;;;;;;;4.97;4.47;;;;;;;14.69;100.00;100496.97;5056961;28;20064;-81
2023/07/27 05:00:31;;;;;;;5.60;4.13;;;;;;;14.70;100.00;100494.16;5063041;28;20304;-81
2023/07/27 05:02:57;;;;;;;4.38;3.97;;;;;;;14.72;100.00;100488.66;5055751;28;20020;-81
2023/07/27 05:05:23;;;;;;;4.97;4.40;;;;;;;14.69;100.00;100480.94;5055258;28;20104;-80
2023/07/27 05:07:48;;;;;;;5.10;4.22;;;;;;;14.72;100.00;100477.97;5054255;28;20459;-80
2023/07/27 05:10:13;;;;;;;5.18;3.78;;;;;;;14.71;100.00;100477.13;5056733;28;20021;-81
2023/07/27 05:12:39;;;;;;;4.75;3.72;;;;;;;14.75;100.00;100474.97;5069042;28;20029;-81
2023/07/27 05:15:04;;;;;;;4.13;3.78;;;;;;;14.73;100.00;100467.13;5048560;28;20459;-80
2023/07/27 05:17:30;;;;;;;6.53;4.32;;;;;;;14.77;100.00;100459.63;5038702;28;20447;-80
2023/07/27 05:19:56;;;;;;;6.35;4.43;;;;;;;14.79;100.00;100455.81;5048241;28;20030;-80
2023/07/27 05:22:21;;;;;;;4.53;4.03;;;;;;;14.78;100.00;100450.63;5043911;28;20025;-80
2023/07/27 05:24:46;;;;;;;5.43;3.80;;;;;;;14.82;100.00;100460.00;5055044;28;20031;-80
2023/07/27 05:27:12;;;;;;;5.95;4.00;;;;;;;14.86;100.00;100453.34;5054773;28;20126;-81
2023/07/27 05:29:37;;;;;;;5.68;4.13;;;;;;;14.87;100.00;100449.72;5054683;28;20040;-81
2023/07/27 05:32:03;;;;;;;4.80;3.88;;;;;;;14.86;100.00;100440.00;5052337;28;20052;-81
2023/07/27 05:34:28;;;;;;;5.32;3.80;;;;;;;14.92;100.00;100443.88;5055136;28;20029;-81
2023/07/27 05:36:53;;;;;;;4.07;3.67;;;;;;;14.93;100.00;100440.22;5046609;28;20140;-81
2023/07/27 05:39:19;;;;;;;4.25;3.85;;;;;;;14.95;100.00;100448.91;5040938;28;20090;-81
2023/07/27 05:41:44;;;;;;;3.97;3.60;;;;;;;14.95;100.00;100444.41;5045361;28;20040;-81
2023/07/27 05:44:09;;;;;;;4.50;3.72;;;;;;;14.96;100.00;100437.22;5054329;28;20020;-81
2023/07/27 05:46:35;;;;;;;4.38;3.70;;;;;;;14.98;100.00;100435.22;5053939;28;20412;-81
2023/07/27 05:49:00;;;;;;;3.78;3.42;;;;;;;15.02;100.00;100433.06;5054327;28;20063;-81
2023/07/27 05:51:25;;;;;;;3.70;3.40;;;;;;;15.03;100.00;100424.06;5050523;28;20021;-81
2023/07/27 05:53:52;;;;;;;3.50;3.20;;;;;;;15.07;100.00;100436.13;5054392;28;20036;-81
2023/07/27 05:56:17;;;;;;;4.63;3.65;;;;;;;15.09;100.00;100436.81;5054485;28;20363;-81
2023/07/27 05:58:43;;;;;;;3.45;3.15;;;;;;;15.07;100.00;100420.06;5045960;28;20021;-83
2023/07/27 06:01:08;;;;;;;4.15;2.88;;;;;;;15.15;100.00;100431.69;5052098;28;20514;-82
2023/07/27 06:03:34;;;;;;;3.78;3.38;;;;;;;15.20;100.00;100430.34;5053902;28;20029;-82
2023/07/27 06:05:59;;;;;;;3.90;3.50;;;;;;;15.22;100.00;100423.00;5054144;28;20031;-82
2023/07/27 06:08:25;;;;;;;3.60;3.30;;;;;;;15.20;100.00;100415.13;5049368;28;20028;-82
2023/07/27 06:11:09;;;;;;;3.08;2.78;;;;;;;15.21;100.00;100405.28;5050331;28;20037;-82
2023/07/27 06:13:35;;;;;;;4.45;3.28;;;;;;;15.29;100.00;100422.22;5049934;28;20117;-82
2023/07/27 06:16:01;;;;;;;4.38;3.20;;;;;;;15.33;100.00;100422.75;5053677;28;20072;-82
2023/07/27 06:18:27;;;;;;;4.93;3.10;;;;;;;15.36;100.00;100420.59;5052027;28;20099;-83
2023/07/27 06:20:52;;;;;;;3.05;2.85;;;;;;;15.41;100.00;100411.25;5051467;28;20416;-82
2023/07/27 06:23:18;;;;;;;3.45;2.90;;;;;;;15.43;100.00;100411.91;5053178;28;20025;-82
2023/07/27 06:25:44;;;;;;;2.88;2.60;;;;;;;15.47;100.00;100413.25;5050555;28;20462;-82
2023/07/27 06:28:10;;;;;;;3.85;3.03;;;;;;;15.51;100.00;100412.78;5061682;28;20049;-82
2023/07/27 06:30:36;;;;;;;3.08;2.78;;;;;;;15.53;100.00;100405.44;5053539;28;20025;-82
2023/07/27 06:33:01;;;;;;;2.90;2.70;;;;;;;15.59;100.00;100414.69;5051801;28;20033;-82
2023/07/27 06:35:27;;;;;;;2.70;2.50;;;;;;;15.58;100.00;100399.59;5060237;28;20097;-83
2023/07/27 06:37:52;;;;;;;2.47;2.28;;;;;;;15.62;100.00;100394.75;5053950;28;20072;-82
2023/07/27 06:40:18;;;;;;;2.67;2.47;;;;;;;15.68;100.00;100405.66;5051996;28;20025;-83
2023/07/27 06:42:44;;;;;;;2.75;2.47;;;;;;;15.72;100.00;100407.03;5050159;28;20036;-82
2023/07/27 06:45:10;;;;;;;2.75;2.50;;;;;;;15.76;100.00;100407.56;5053151;28;20025;-82
2023/07/27 06:47:36;;;;;;;2.60;2.40;;;;;;;15.78;100.00;100402.06;5053661;28;20060;-82
2023/07/27 06:50:01;;;;;;;3.25;2.33;;;;;;;15.79;100.00;100406.44;5048747;28;20099;-82
2023/07/27 06:52:26;;;;;;;2.83;2.63;;;;;;;15.83;100.00;100400.56;5051467;28;20103;-82
2023/07/27 06:54:52;;;;;;;2.60;2.40;;;;;;;15.81;100.00;100396.38;5057510;28;20446;-82
2023/07/27 06:57:17;;;;;;;2.92;2.63;;;;;;;15.82;100.00;100390.00;5059548;28;20036;-84
2023/07/27 06:59:43;;;;;;;4.97;2.63;;;;;;;15.89;100.00;100401.75;5058887;28;20025;-84
2023/07/27 07:02:08;;;;;;;3.17;2.40;;;;;;;15.90;100.00;100398.94;5059762;28;20021;-82
2023/07/27 07:04:33;;;;;;;2.90;2.67;;;;;;;15.91;100.00;100397.06;5057805;28;20020;-82
2023/07/27 07:06:59;;;;;;;4.22;2.47;;;;;;;15.95;100.00;100397.59;5056340;28;20025;-82
2023/07/27 07:09:24;;;;;;;6.18;2.70;;;;;;;16.00;100.00;100405.97;5058815;28;20028;-81
2023/07/27 07:11:49;;;;;;;3.92;2.67;;;;;;;15.98;100.00;100403.44;5055061;28;20108;-81
2023/07/27 07:14:15;;;;;;;5.22;2.75;;;;;;;16.01;100.00;100400.44;5046232;28;20033;-82
2023/07/27 07:16:40;;;;;;;4.03;2.90;;;;;;;16.06;100.00;100408.81;5052965;28;20104;-82
2023/07/27 07:19:05;;;;;;;2.95;2.75;;;;;;;16.09;100.00;100400.47;5056430;28;20056;-82
2023/07/27 07:21:31;;;;;;;3.28;3.03;;;;;;;16.10;100.00;100401.28;5055102;28;20032;-82
2023/07/27 07:23:56;;;;;;;2.97;2.78;;;;;;;16.14;100.00;100402.66;5049839;28;20139;-82
2023/07/27 07:26:21;;;;;;;2.92;2.72;;;;;;;16.14;100.00;100397.31;5037926;28;20521;-82
2023/07/27 07:28:47;;;;;;;2.72;2.53;;;;;;;16.19;100.00;100410.22;5051691;28;20033;-82
2023/07/27 07:31:12;;;;;;;2.80;2.60;;;;;;;16.21;100.00;100398.31;5053077;28;20177;-82
2023/07/27 07:33:37;;;;;;;2.80;2.60;;;;;;;16.28;100.00;100399.31;5051333;28;20464;-83
2023/07/27 07:36:03;;;;;;;3.20;2.60;;;;;;;16.35;100.00;100394.13;5061611;28;20024;-83
2023/07/27 07:38:28;;;;;;;2.60;2.40;;;;;;;16.40;100.00;100380.22;5062931;28;20047;-83
2023/07/27 07:40:53;;;;;;;2.40;2.20;;;;;;;16.43;100.00;100380.72;5055594;28;20029;-84
2023/07/27 07:43:19;;;;;;;2.10;1.90;;;;;;;16.49;100.00;100373.88;5062478;28;20119;-84
2023/07/27 07:45:44;;;;;;;1.92;1.83;;;;;;;16.59;100.00;100381.75;5060126;28;20072;-83
2023/07/27 07:48:09;;;;;;;2.08;1.98;;;;;;;16.62;100.00;100386.75;5054565;28;20064;-83
2023/07/27 07:50:37;;;;;;;1.85;1.75;;;;;;;16.65;100.00;100375.69;5053115;28;20036;-83
2023/07/27 07:53:02;;;;;;;2.05;1.60;;;;;;;16.68;100.00;100374.53;5052847;28;20380;-83
2023/07/27 07:55:27;;;;;;;1.80;1.70;;;;;;;16.69;100.00;100371.69;5050124;28;20032;-83
2023/07/27 07:57:53;;;;;;;1.70;1.60;;;;;;;16.72;100.00;100367.81;5053289;28;20052;-82
2023/07/27 08:00:18;;;;;;;1.77;1.67;;;;;;;16.77;100.00;100373.50;5056736;28;20137;-82
2023/07/27 08:02:43;;;;;;;3.08;1.58;;;;;;;16.80;100.00;100382.06;5055899;28;20029;-83
2023/07/27 08:05:09;;;;;;;3.80;1.50;;;;;;;16.80;100.00;100379.38;5049206;28;20032;-83
2023/07/27 08:07:35;;;;;;;1.90;1.80;;;;;;;16.85;100.00;100375.38;5054755;28;20087;-84
2023/07/27 08:10:02;;;;;;;2.42;1.60;;;;;;;16.87;100.00;100374.22;5055440;28;20029;-83
2023/07/27 08:12:27;;;;;;;1.65;1.55;;;;;;;16.86;100.00;100369.84;5054708;28;20083;-83
2023/07/27 08:14:53;;;;;;;2.00;1.70;;;;;;;16.92;100.00;100371.00;5047040;28;20060;-82
2023/07/27 08:17:18;;;;;;;1.80;1.70;;;;;;;16.91;100.00;100372.84;5053005;28;20135;-83
2023/07/27 08:19:43;;;;;;;1.60;1.50;;;;;;;16.94;100.00;100369.00;5055581;28;20032;-82
2023/07/27 08:22:09;;;;;;;2.35;1.70;;;;;;;17.02;100.00;100371.69;5056613;28;20489;-82
2023/07/27 08:24:34;;;;;;;2.10;2.00;;;;;;;17.10;100.00;100366.28;5052569;28;20033;-82
2023/07/27 08:26:59;;;;;;;1.80;1.70;;;;;;;17.11;100.00;100367.94;5056749;28;20487;-82
2023/07/27 08:29:25;;;;;;;1.80;1.70;;;;;;;17.11;100.00;100361.75;5054767;28;20021;-83
2023/07/27 08:31:51;;;;;;;2.15;1.95;;;;;;;17.16;100.00;100370.94;5054375;28;20029;-82
2023/07/27 08:34:16;;;;;;;2.00;1.90;;;;;;;17.18;100.00;100368.91;5055086;28;20032;-83
2023/07/27 08:36:41;;;;;;;3.22;2.00;;;;;;;17.19;100.00;100369.78;5056025;28;20032;-82
2023/07/27 08:39:07;;;;;;;2.00;1.90;;;;;;;17.22;100.00;100364.06;5056176;28;20454;-81
2023/07/27 08:41:32;;;;;;;2.20;2.10;;;;;;;17.20;100.00;100355.34;5058778;28;20283;-82
2023/07/27 08:44:01;;;;;;;1.60;1.50;;;;;;;17.24;100.00;100362.03;5051842;28;20060;-83
2023/07/27 08:46:29;;;;;;;2.10;2.00;;;;;;;17.26;100.00;100369.94;5038843;28;20379;-83
2023/07/27 08:48:55;;;;;;;1.80;1.70;;;;;;;17.29;100.00;100364.22;5052493;28;20033;-83
2023/07/27 08:51:21;;;;;;;1.80;1.65;;;;;;;17.33;100.00;100354.78;5056741;28;20036;-83
2023/07/27 08:53:46;;;;;;;1.85;1.75;;;;;;;17.33;100.00;100360.97;5048951;28;20406;-83
2023/07/27 08:56:11;;;;;;;2.40;2.20;;;;;;;17.34;100.00;100361.84;5062417;28;20086;-83
2023/07/27 08:58:37;;;;;;;1.92;1.83;;;;;;;17.37;100.00;100362.34;5047812;28;20052;-83
2023/07/27 09:01:02;;;;;;;1.90;1.80;;;;;;;17.34;100.00;100361.84;5065306;28;20046;-83
2023/07/27 09:03:28;;;;;;;2.45;1.73;;;;;;;17.37;100.00;100369.56;5053220;28;20079;-83
2023/07/27 09:05:59;;;;;;;1.83;1.73;;;;;;;17.41;100.00;100367.34;5048839;28;20079;-83
2023/07/27 09:08:28;;;;;;;1.77;1.70;;;;;;;17.37;100.00;100361.50;5059715;28;20020;-83
2023/07/27 09:10:53;;;;;;;;;;;;;;;17.48;100.00;100369.16;5058831;28;20039;-82
2023/07/27 09:13:18;;;;;;;;;;;;;;;17.51;100.00;100362.59;5053778;28;19915;-84
2023/07/27 09:15:44;;;;;;;;;;;;;;;17.53;100.00;100360.56;5053294;28;19939;-84
2023/07/27 09:18:11;;;;;;;;;;;;;;;17.58;100.00;100363.56;5046673;28;19912;-84
2023/07/27 09:20:37;;;;;;;;;;;;;;;17.62;100.00;100367.59;5054197;28;20622;-84
2023/07/27 09:23:02;;;;;;;;;;;;;;;17.65;100.00;100356.50;5053474;28;20003;-84
2023/07/27 09:25:27;;;;;;;;;;;;;;;17.69;100.00;100360.50;5040698;28;19917;-83
2023/07/27 09:27:53;;;;;;;;;;;;;;;17.74;100.00;100359.97;5053405;28;20484;-84
2023/07/27 09:30:19;;;;;;;;;;;;;;;17.80;100.00;100361.94;5053923;28;19913;-84
2023/07/27 09:32:45;;;;;;;;;;;;;;;17.86;100.00;100360.41;5043119;28;19913;-85
2023/07/27 09:35:14;;;;;;;;;;;;;;;17.87;100.00;100362.09;5045145;28;20019;-81
2023/07/27 09:37:43;;;;;;;;;;;;;;;17.92;100.00;100359.75;5049932;28;19936;-84
2023/07/27 09:40:09;;;;;;;;;;;;;;;17.96;100.00;100360.22;5055916;28;19912;-82
2023/07/27 09:42:35;;;;;;;;;;;;;;;18.00;100.00;100351.63;5055404;28;19958;-81
2023/07/27 09:45:00;;;;;;;;;;;;;;;18.02;100.00;100356.81;5055642;28;20320;-81
2023/07/27 09:47:30;;;;;;;;;;;;;;;18.04;100.00;100365.53;5056025;28;20256;-82
2023/07/27 09:49:57;;;;;;;;;;;;;;;18.06;100.00;100360.81;5045843;28;20420;-81
2023/07/27 09:52:23;;;;;;;;;;;;;;;18.07;100.00;100355.28;5051057;28;19913;-81
2023/07/27 09:54:49;;;;;;;;;;;;;;;18.08;100.00;100359.59;5048708;28;19922;-81
2023/07/27 09:57:15;;;;;;;;;;;;;;;18.10;100.00;100359.44;5056145;28;19916;-82
2023/07/27 09:59:41;;;;;;;;;;;;;;;18.12;100.00;100366.31;5055328;28;20016;-82
2023/07/27 10:02:06;;;;;;;;;;;;;;;18.14;100.00;100362.63;5057567;28;20378;-82
2023/07/27 10:04:32;;;;;;;;;;;;;;;18.17;100.00;100360.41;5051622;28;19952;-82
2023/07/27 10:06:57;;;;;;;;;;;;;;;18.21;100.00;100367.09;5063003;28;19956;-82
2023/07/27 10:09:22;;;;;;;;;;;;;;;18.27;100.00;100366.38;5065998;28;20423;-81
2023/07/27 10:11:59;;;;;;;;;;;;;;;18.31;100.00;100356.94;5048361;28;20534;-82
2023/07/27 10:14:26;;;;;;;;;;;;;;;18.36;100.00;100358.25;5063296;28;19920;-82
2023/07/27 10:17:02;;;;;;;;;;;;;;;18.42;100.00;100358.38;5063493;28;20368;-81
2023/07/27 10:19:43;;;;;;;;;;;;;;;18.47;100.00;100360.50;5056352;28;19919;-81
2023/07/27 10:22:11;;;;;;;;;;;;;;;18.48;100.00;100356.78;5053397;28;20558;-81
2023/07/27 10:24:48;;;;;;;;;;;;;;;18.52;100.00;100358.13;5052539;28;19917;-81
2023/07/27 10:27:13;;;;;;;;;;;;;;;18.52;100.00;100358.13;5052804;28;19952;-81
2023/07/27 10:29:38;;;;;;;;;;;;;;;18.54;100.00;100364.16;5053362;28;20002;-81
2023/07/27 10:32:04;;;;;;;;;;;;;;;18.58;100.00;100356.53;5059182;28;19913;-82
2023/07/27 10:34:30;;;;;;;;;;;;;;;18.60;100.00;100358.03;5053876;28;19913;-81
2023/07/27 10:36:59;;;;;;;;;;;;;;;18.63;100.00;100367.59;5065034;28;19913;-82
2023/07/27 10:39:26;;;;;;;;;;;;;;;18.65;100.00;100357.47;5059605;28;20363;-82
2023/07/27 10:42:02;;;;;;;;;;;;;;;18.65;100.00;100361.03;5060112;28;19917;-81
2023/07/27 10:44:42;;;;;;;;;;;;;;;18.64;100.00;100364.72;5054368;28;19913;-81
2023/07/27 10:47:08;;;;;;;;;;;;;;;18.65;100.00;100361.03;5051899;28;19923;-81
2023/07/27 10:49:40;;;;;;;;;;;;;;;18.67;100.00;100355.47;5054142;28;19963;-81
2023/07/27 10:52:06;;;;;;;;;;;;;;;18.68;100.00;100362.50;5054217;28;19920;-81
2023/07/27 10:54:31;;;;;;;;;;;;;;;18.67;100.00;100358.16;5052061;28;20110;-81
2023/07/27 10:56:56;;;;;;;;;;;;;;;18.66;100.00;100365.38;5052733;28;19919;-81
2023/07/27 10:59:22;;;;;;;;;;;;;;;18.69;100.00;100366.88;5051736;28;19962;-81
2023/07/27 11:01:47;;;;;;;;;;;;;;;18.74;100.00;100366.31;5058282;28;19962;-81
2023/07/27 11:04:15;;;;;;;;;;;;;;;18.72;100.00;100366.50;5048467;28;19923;-81
2023/07/27 11:06:42;;;;;;;;;;;;;;;18.70;100.00;100368.53;5051369;28;20378;-81
2023/07/27 11:09:15;;;;;;;;;;;;;;;18.67;100.00;100361.66;5065903;28;19916;-81
2023/07/27 11:11:40;;;;;;;;;;;;;;;18.67;100.00;100358.97;5058733;28;19955;-81
2023/07/27 11:14:06;;;;;;;;;;;;;;;18.68;100.00;100362.50;5050285;28;19975;-81
2023/07/27 11:16:38;;;;;;;;;;;;;;;18.69;100.00;100356.09;5051553;28;19912;-81
2023/07/27 11:19:04;;;;;;;;;;;;;;;18.72;100.00;100354.88;5064764;28;19912;-81
2023/07/27 11:21:33;;;;;;;;;;;;;;;18.73;100.00;100352.03;5052601;28;19999;-81
2023/07/27 11:23:58;;;;;;;;;;;;;;;18.78;100.00;100348.78;5052128;28;19913;-81
2023/07/27 11:26:27;;;;;;;;;;;;;;;18.81;100.00;100349.25;5052693;28;19994;-81
2023/07/27 11:28:53;;;;;;;;;;;;;;;18.84;100.00;100348.91;5058126;28;20020;-81